sensor_id;sensor_type;location;lat;lon;timestamp;P1;durP1;ratioP1;P2;durP2;ratioP2
6113;SDS011;3087;48.392;10.836;2024-03-22T00:01:47;12.30;;;9.07;;
6113;SDS011;3087;48.392;10.836;2024-03-22T00:04:13;12.38;;;9.77;;
6113;SDS011;3087;48.392;10.836;2024-03-22T00:06:41;11.70;;;9.23;;
6113;SDS011;3087;48.392;10.836;2024-03-22T00:09:07;13.38;;;9.95;;
6113;SDS011;3087;48.392;10.836;2024-03-22T00:11:33;13.55;;;10.43;;
6113;SDS011;3087;48.392;10.836;2024-03-22T00:13:59;15.33;;;11.43;;
6113;SDS011;3087;48.392;10.836;2024-03-22T00:16:24;16.80;;;11.80;;
6113;SDS011;3087;48.392;10.836;2024-03-22T00:18:50;14.00;;;11.00;;
6113;SDS011;3087;48.392;10.836;2024-03-22T00:21:15;15.07;;;12.27;;
6113;SDS011;3087;48.392;10.836;2024-03-22T00:23:41;23.57;;;11.97;;
6113;SDS011;3087;48.392;10.836;2024-03-22T00:26:07;17.30;;;11.27;;
6113;SDS011;3087;48.392;10.836;2024-03-22T00:28:33;17.20;;;11.07;;
6113;SDS011;3087;48.392;10.836;2024-03-22T00:30:58;17.50;;;13.17;;
6113;SDS011;3087;48.392;10.836;2024-03-22T00:33:24;15.87;;;10.40;;
6113;SDS011;3087;48.392;10.836;2024-03-22T00:35:50;15.17;;;11.53;;
6113;SDS011;3087;48.392;10.836;2024-03-22T00:38:15;14.57;;;9.77;;
6113;SDS011;3087;48.392;10.836;2024-03-22T00:40:41;14.47;;;11.10;;
6113;SDS011;3087;48.392;10.836;2024-03-22T00:43:07;14.47;;;11.47;;
6113;SDS011;3087;48.392;10.836;2024-03-22T00:45:32;14.07;;;9.87;;
6113;SDS011;3087;48.392;10.836;2024-03-22T00:47:58;13.23;;;10.17;;
6113;SDS011;3087;48.392;10.836;2024-03-22T00:50:23;14.87;;;10.63;;
6113;SDS011;3087;48.392;10.836;2024-03-22T00:52:50;12.23;;;9.60;;
6113;SDS011;3087;48.392;10.836;2024-03-22T00:55:17;18.47;;;11.90;;
6113;SDS011;3087;48.392;10.836;2024-03-22T00:57:43;11.83;;;9.13;;
6113;SDS011;3087;48.392;10.836;2024-03-22T01:00:09;13.23;;;10.27;;
6113;SDS011;3087;48.392;10.836;2024-03-22T01:02:35;14.33;;;9.87;;
6113;SDS011;3087;48.392;10.836;2024-03-22T01:05:00;12.37;;;10.07;;
6113;SDS011;3087;48.392;10.836;2024-03-22T01:07:26;13.80;;;10.13;;
6113;SDS011;3087;48.392;10.836;2024-03-22T01:09:51;11.27;;;8.47;;
6113;SDS011;3087;48.392;10.836;2024-03-22T01:12:17;11.97;;;9.10;;
6113;SDS011;3087;48.392;10.836;2024-03-22T01:14:43;11.23;;;9.07;;
6113;SDS011;3087;48.392;10.836;2024-03-22T01:17:08;11.63;;;8.73;;
6113;SDS011;3087;48.392;10.836;2024-03-22T01:19:34;12.43;;;9.70;;
6113;SDS011;3087;48.392;10.836;2024-03-22T01:21:59;12.53;;;9.57;;
6113;SDS011;3087;48.392;10.836;2024-03-22T01:24:25;13.53;;;10.20;;
6113;SDS011;3087;48.392;10.836;2024-03-22T01:26:50;14.23;;;9.77;;
6113;SDS011;3087;48.392;10.836;2024-03-22T01:29:16;14.97;;;9.53;;
6113;SDS011;3087;48.392;10.836;2024-03-22T01:31:42;12.93;;;9.23;;
6113;SDS011;3087;48.392;10.836;2024-03-22T01:34:07;14.83;;;11.60;;
6113;SDS011;3087;48.392;10.836;2024-03-22T01:36:33;15.23;;;10.07;;
6113;SDS011;3087;48.392;10.836;2024-03-22T01:38:58;14.27;;;10.93;;
6113;SDS011;3087;48.392;10.836;2024-03-22T01:41:24;17.03;;;12.60;;
6113;SDS011;3087;48.392;10.836;2024-03-22T01:43:50;18.40;;;11.50;;
6113;SDS011;3087;48.392;10.836;2024-03-22T01:46:15;14.50;;;11.23;;
6113;SDS011;3087;48.392;10.836;2024-03-22T01:48:41;15.40;;;11.10;;
6113;SDS011;3087;48.392;10.836;2024-03-22T01:51:07;13.73;;;10.57;;
6113;SDS011;3087;48.392;10.836;2024-03-22T01:53:34;15.73;;;11.83;;
6113;SDS011;3087;48.392;10.836;2024-03-22T01:56:02;17.57;;;12.80;;
6113;SDS011;3087;48.392;10.836;2024-03-22T01:58:28;16.30;;;11.67;;
6113;SDS011;3087;48.392;10.836;2024-03-22T02:00:54;16.77;;;11.80;;
6113;SDS011;3087;48.392;10.836;2024-03-22T02:03:19;18.20;;;13.67;;
6113;SDS011;3087;48.392;10.836;2024-03-22T02:05:45;15.27;;;11.37;;
6113;SDS011;3087;48.392;10.836;2024-03-22T02:08:11;21.57;;;15.87;;
6113;SDS011;3087;48.392;10.836;2024-03-22T02:10:36;15.70;;;11.90;;
6113;SDS011;3087;48.392;10.836;2024-03-22T02:13:02;18.37;;;12.30;;
6113;SDS011;3087;48.392;10.836;2024-03-22T02:15:27;17.00;;;12.47;;
6113;SDS011;3087;48.392;10.836;2024-03-22T02:17:53;18.00;;;12.47;;
6113;SDS011;3087;48.392;10.836;2024-03-22T02:20:19;18.93;;;13.40;;
6113;SDS011;3087;48.392;10.836;2024-03-22T02:22:44;20.07;;;13.40;;
6113;SDS011;3087;48.392;10.836;2024-03-22T02:25:10;19.17;;;13.70;;
6113;SDS011;3087;48.392;10.836;2024-03-22T02:27:35;18.77;;;13.83;;
6113;SDS011;3087;48.392;10.836;2024-03-22T02:30:02;17.63;;;13.30;;
6113;SDS011;3087;48.392;10.836;2024-03-22T02:32:29;21.73;;;16.03;;
6113;SDS011;3087;48.392;10.836;2024-03-22T02:34:54;19.27;;;13.93;;
6113;SDS011;3087;48.392;10.836;2024-03-22T02:37:20;22.43;;;15.50;;
6113;SDS011;3087;48.392;10.836;2024-03-22T02:39:45;23.53;;;15.43;;
6113;SDS011;3087;48.392;10.836;2024-03-22T02:42:11;18.40;;;13.57;;
6113;SDS011;3087;48.392;10.836;2024-03-22T02:44:37;20.93;;;15.70;;
6113;SDS011;3087;48.392;10.836;2024-03-22T02:47:07;19.83;;;15.00;;
6113;SDS011;3087;48.392;10.836;2024-03-22T02:49:38;17.63;;;12.23;;
6113;SDS011;3087;48.392;10.836;2024-03-22T02:52:04;18.97;;;14.07;;
6113;SDS011;3087;48.392;10.836;2024-03-22T02:54:29;19.87;;;15.67;;
6113;SDS011;3087;48.392;10.836;2024-03-22T02:56:55;18.77;;;13.20;;
6113;SDS011;3087;48.392;10.836;2024-03-22T02:59:20;14.97;;;11.53;;
6113;SDS011;3087;48.392;10.836;2024-03-22T03:01:46;15.50;;;11.67;;
6113;SDS011;3087;48.392;10.836;2024-03-22T03:04:11;15.33;;;12.03;;
6113;SDS011;3087;48.392;10.836;2024-03-22T03:06:37;13.60;;;10.43;;
6113;SDS011;3087;48.392;10.836;2024-03-22T03:09:03;17.17;;;10.97;;
6113;SDS011;3087;48.392;10.836;2024-03-22T03:11:33;16.17;;;10.43;;
6113;SDS011;3087;48.392;10.836;2024-03-22T03:13:58;22.43;;;14.60;;
6113;SDS011;3087;48.392;10.836;2024-03-22T03:16:24;19.87;;;13.97;;
6113;SDS011;3087;48.392;10.836;2024-03-22T03:18:50;18.30;;;12.93;;
6113;SDS011;3087;48.392;10.836;2024-03-22T03:21:15;18.60;;;13.07;;
6113;SDS011;3087;48.392;10.836;2024-03-22T03:23:41;17.57;;;12.30;;
6113;SDS011;3087;48.392;10.836;2024-03-22T03:26:06;17.87;;;12.00;;
6113;SDS011;3087;48.392;10.836;2024-03-22T03:28:32;18.00;;;13.10;;
6113;SDS011;3087;48.392;10.836;2024-03-22T03:30:57;20.23;;;14.73;;
6113;SDS011;3087;48.392;10.836;2024-03-22T03:33:23;22.93;;;16.63;;
6113;SDS011;3087;48.392;10.836;2024-03-22T03:35:48;19.00;;;12.70;;
6113;SDS011;3087;48.392;10.836;2024-03-22T03:38:14;21.63;;;14.90;;
6113;SDS011;3087;48.392;10.836;2024-03-22T03:40:40;19.30;;;15.10;;
6113;SDS011;3087;48.392;10.836;2024-03-22T03:43:05;17.70;;;13.40;;
6113;SDS011;3087;48.392;10.836;2024-03-22T03:45:31;22.67;;;14.60;;
6113;SDS011;3087;48.392;10.836;2024-03-22T03:47:56;25.03;;;17.33;;
6113;SDS011;3087;48.392;10.836;2024-03-22T03:50:22;22.27;;;16.30;;
6113;SDS011;3087;48.392;10.836;2024-03-22T03:52:47;25.60;;;19.00;;
6113;SDS011;3087;48.392;10.836;2024-03-22T03:55:14;22.87;;;16.60;;
6113;SDS011;3087;48.392;10.836;2024-03-22T03:57:39;20.33;;;15.10;;
6113;SDS011;3087;48.392;10.836;2024-03-22T04:00:05;16.30;;;12.87;;
6113;SDS011;3087;48.392;10.836;2024-03-22T04:02:31;20.80;;;14.70;;
6113;SDS011;3087;48.392;10.836;2024-03-22T04:04:57;17.93;;;13.47;;
6113;SDS011;3087;48.392;10.836;2024-03-22T04:07:22;18.73;;;13.43;;
6113;SDS011;3087;48.392;10.836;2024-03-22T04:09:48;23.50;;;15.97;;
6113;SDS011;3087;48.392;10.836;2024-03-22T04:12:13;18.60;;;13.97;;
6113;SDS011;3087;48.392;10.836;2024-03-22T04:14:39;20.00;;;15.10;;
6113;SDS011;3087;48.392;10.836;2024-03-22T04:17:05;20.20;;;14.73;;
6113;SDS011;3087;48.392;10.836;2024-03-22T04:19:30;23.27;;;17.03;;
6113;SDS011;3087;48.392;10.836;2024-03-22T04:21:56;25.00;;;16.83;;
6113;SDS011;3087;48.392;10.836;2024-03-22T04:24:21;20.57;;;16.10;;
6113;SDS011;3087;48.392;10.836;2024-03-22T04:26:47;24.40;;;16.30;;
6113;SDS011;3087;48.392;10.836;2024-03-22T04:29:12;23.67;;;16.23;;
6113;SDS011;3087;48.392;10.836;2024-03-22T04:31:38;24.13;;;15.77;;
6113;SDS011;3087;48.392;10.836;2024-03-22T04:34:03;18.27;;;13.23;;
6113;SDS011;3087;48.392;10.836;2024-03-22T04:36:32;23.90;;;16.37;;
6113;SDS011;3087;48.392;10.836;2024-03-22T04:38:58;24.60;;;16.90;;
6113;SDS011;3087;48.392;10.836;2024-03-22T04:41:23;24.13;;;16.87;;
6113;SDS011;3087;48.392;10.836;2024-03-22T04:43:49;23.03;;;16.13;;
6113;SDS011;3087;48.392;10.836;2024-03-22T04:46:14;21.00;;;15.10;;
6113;SDS011;3087;48.392;10.836;2024-03-22T04:48:40;18.80;;;14.03;;
6113;SDS011;3087;48.392;10.836;2024-03-22T04:51:05;18.47;;;13.93;;
6113;SDS011;3087;48.392;10.836;2024-03-22T04:53:31;20.57;;;14.30;;
6113;SDS011;3087;48.392;10.836;2024-03-22T04:55:56;23.30;;;13.27;;
6113;SDS011;3087;48.392;10.836;2024-03-22T04:58:22;19.13;;;14.33;;
6113;SDS011;3087;48.392;10.836;2024-03-22T05:00:48;25.23;;;16.83;;
6113;SDS011;3087;48.392;10.836;2024-03-22T05:03:15;18.23;;;13.97;;
6113;SDS011;3087;48.392;10.836;2024-03-22T05:05:41;17.10;;;13.33;;
6113;SDS011;3087;48.392;10.836;2024-03-22T05:08:07;20.83;;;13.00;;
6113;SDS011;3087;48.392;10.836;2024-03-22T05:10:33;20.93;;;14.93;;
6113;SDS011;3087;48.392;10.836;2024-03-22T05:13:00;20.97;;;14.23;;
6113;SDS011;3087;48.392;10.836;2024-03-22T05:15:25;21.47;;;15.40;;
6113;SDS011;3087;48.392;10.836;2024-03-22T05:17:51;22.23;;;16.30;;
6113;SDS011;3087;48.392;10.836;2024-03-22T05:20:18;20.60;;;15.47;;
6113;SDS011;3087;48.392;10.836;2024-03-22T05:22:44;18.80;;;14.70;;
6113;SDS011;3087;48.392;10.836;2024-03-22T05:25:10;21.40;;;15.67;;
6113;SDS011;3087;48.392;10.836;2024-03-22T05:27:37;26.33;;;16.47;;
6113;SDS011;3087;48.392;10.836;2024-03-22T05:30:03;23.17;;;15.47;;
6113;SDS011;3087;48.392;10.836;2024-03-22T05:32:29;23.83;;;15.83;;
6113;SDS011;3087;48.392;10.836;2024-03-22T05:34:55;19.77;;;14.50;;
6113;SDS011;3087;48.392;10.836;2024-03-22T05:37:21;21.87;;;15.17;;
6113;SDS011;3087;48.392;10.836;2024-03-22T05:39:47;19.93;;;14.80;;
6113;SDS011;3087;48.392;10.836;2024-03-22T05:42:13;19.73;;;13.33;;
6113;SDS011;3087;48.392;10.836;2024-03-22T05:44:39;24.77;;;17.60;;
6113;SDS011;3087;48.392;10.836;2024-03-22T05:47:04;22.07;;;15.97;;
6113;SDS011;3087;48.392;10.836;2024-03-22T05:49:30;26.23;;;15.80;;
6113;SDS011;3087;48.392;10.836;2024-03-22T05:51:56;21.07;;;14.50;;
6113;SDS011;3087;48.392;10.836;2024-03-22T05:54:22;18.53;;;14.23;;
6113;SDS011;3087;48.392;10.836;2024-03-22T05:56:48;23.27;;;17.10;;
6113;SDS011;3087;48.392;10.836;2024-03-22T05:59:13;20.63;;;13.07;;
6113;SDS011;3087;48.392;10.836;2024-03-22T06:01:39;20.80;;;13.13;;
6113;SDS011;3087;48.392;10.836;2024-03-22T06:04:05;20.63;;;14.40;;
6113;SDS011;3087;48.392;10.836;2024-03-22T06:06:34;21.30;;;16.30;;
6113;SDS011;3087;48.392;10.836;2024-03-22T06:09:00;22.37;;;17.27;;
6113;SDS011;3087;48.392;10.836;2024-03-22T06:11:28;22.07;;;16.07;;
6113;SDS011;3087;48.392;10.836;2024-03-22T06:13:57;20.73;;;14.90;;
6113;SDS011;3087;48.392;10.836;2024-03-22T06:16:23;21.07;;;13.93;;
6113;SDS011;3087;48.392;10.836;2024-03-22T06:18:48;21.30;;;15.27;;
6113;SDS011;3087;48.392;10.836;2024-03-22T06:21:14;17.17;;;12.90;;
6113;SDS011;3087;48.392;10.836;2024-03-22T06:23:40;17.87;;;13.67;;
6113;SDS011;3087;48.392;10.836;2024-03-22T06:26:09;24.00;;;14.27;;
6113;SDS011;3087;48.392;10.836;2024-03-22T06:28:34;21.50;;;15.17;;
6113;SDS011;3087;48.392;10.836;2024-03-22T06:31:01;17.37;;;13.60;;
6113;SDS011;3087;48.392;10.836;2024-03-22T06:33:28;21.60;;;13.87;;
6113;SDS011;3087;48.392;10.836;2024-03-22T06:35:53;17.17;;;13.37;;
6113;SDS011;3087;48.392;10.836;2024-03-22T06:38:19;18.80;;;13.53;;
6113;SDS011;3087;48.392;10.836;2024-03-22T06:40:44;19.30;;;13.97;;
6113;SDS011;3087;48.392;10.836;2024-03-22T06:43:10;18.33;;;14.30;;
6113;SDS011;3087;48.392;10.836;2024-03-22T06:45:35;23.10;;;15.37;;
6113;SDS011;3087;48.392;10.836;2024-03-22T06:48:01;20.20;;;13.90;;
6113;SDS011;3087;48.392;10.836;2024-03-22T06:50:27;19.87;;;14.63;;
6113;SDS011;3087;48.392;10.836;2024-03-22T06:52:53;20.10;;;13.50;;
6113;SDS011;3087;48.392;10.836;2024-03-22T06:55:21;21.33;;;14.37;;
6113;SDS011;3087;48.392;10.836;2024-03-22T06:57:47;23.02;;;14.52;;
6113;SDS011;3087;48.392;10.836;2024-03-22T07:00:14;17.73;;;12.87;;
6113;SDS011;3087;48.392;10.836;2024-03-22T07:02:40;19.70;;;14.67;;
6113;SDS011;3087;48.392;10.836;2024-03-22T07:05:06;19.23;;;14.50;;
6113;SDS011;3087;48.392;10.836;2024-03-22T07:07:32;18.20;;;14.77;;
6113;SDS011;3087;48.392;10.836;2024-03-22T07:09:58;17.27;;;14.38;;
6113;SDS011;3087;48.392;10.836;2024-03-22T07:12:24;20.30;;;14.10;;
6113;SDS011;3087;48.392;10.836;2024-03-22T07:14:49;17.83;;;13.77;;
6113;SDS011;3087;48.392;10.836;2024-03-22T07:17:15;19.30;;;15.02;;
6113;SDS011;3087;48.392;10.836;2024-03-22T07:19:41;19.25;;;14.80;;
6113;SDS011;3087;48.392;10.836;2024-03-22T07:22:07;16.10;;;13.53;;
6113;SDS011;3087;48.392;10.836;2024-03-22T07:24:33;19.63;;;15.90;;
6113;SDS011;3087;48.392;10.836;2024-03-22T07:26:59;18.38;;;14.30;;
6113;SDS011;3087;48.392;10.836;2024-03-22T07:29:24;20.73;;;13.57;;
6113;SDS011;3087;48.392;10.836;2024-03-22T07:31:50;20.48;;;15.40;;
6113;SDS011;3087;48.392;10.836;2024-03-22T07:34:15;15.45;;;12.43;;
6113;SDS011;3087;48.392;10.836;2024-03-22T07:36:41;18.27;;;13.88;;
6113;SDS011;3087;48.392;10.836;2024-03-22T07:39:06;16.67;;;12.90;;
6113;SDS011;3087;48.392;10.836;2024-03-22T07:41:33;17.33;;;11.73;;
6113;SDS011;3087;48.392;10.836;2024-03-22T07:43:59;14.82;;;11.93;;
6113;SDS011;3087;48.392;10.836;2024-03-22T07:46:25;15.75;;;13.05;;
6113;SDS011;3087;48.392;10.836;2024-03-22T07:48:51;16.30;;;11.52;;
6113;SDS011;3087;48.392;10.836;2024-03-22T07:51:17;15.38;;;12.65;;
6113;SDS011;3087;48.392;10.836;2024-03-22T07:53:42;18.77;;;14.73;;
6113;SDS011;3087;48.392;10.836;2024-03-22T07:56:08;15.60;;;11.73;;
6113;SDS011;3087;48.392;10.836;2024-03-22T07:58:34;17.80;;;12.32;;
6113;SDS011;3087;48.392;10.836;2024-03-22T08:00:59;13.50;;;11.60;;
6113;SDS011;3087;48.392;10.836;2024-03-22T08:03:25;13.90;;;12.27;;
6113;SDS011;3087;48.392;10.836;2024-03-22T08:05:51;15.45;;;12.77;;
6113;SDS011;3087;48.392;10.836;2024-03-22T08:08:17;17.08;;;12.23;;
6113;SDS011;3087;48.392;10.836;2024-03-22T08:10:42;17.10;;;12.38;;
6113;SDS011;3087;48.392;10.836;2024-03-22T08:13:08;15.57;;;11.48;;
6113;SDS011;3087;48.392;10.836;2024-03-22T08:15:34;15.77;;;11.75;;
6113;SDS011;3087;48.392;10.836;2024-03-22T08:18:00;13.52;;;11.15;;
6113;SDS011;3087;48.392;10.836;2024-03-22T08:20:26;14.05;;;10.68;;
6113;SDS011;3087;48.392;10.836;2024-03-22T08:22:52;13.65;;;10.98;;
6113;SDS011;3087;48.392;10.836;2024-03-22T08:25:17;11.73;;;10.32;;
6113;SDS011;3087;48.392;10.836;2024-03-22T08:27:45;12.35;;;9.55;;
6113;SDS011;3087;48.392;10.836;2024-03-22T08:30:11;10.75;;;9.65;;
6113;SDS011;3087;48.392;10.836;2024-03-22T08:32:37;14.90;;;9.48;;
6113;SDS011;3087;48.392;10.836;2024-03-22T08:35:03;12.18;;;9.40;;
6113;SDS011;3087;48.392;10.836;2024-03-22T08:37:33;10.85;;;9.65;;
6113;SDS011;3087;48.392;10.836;2024-03-22T08:39:59;12.98;;;9.23;;
6113;SDS011;3087;48.392;10.836;2024-03-22T08:42:24;10.85;;;9.00;;
6113;SDS011;3087;48.392;10.836;2024-03-22T08:44:50;13.10;;;10.98;;
6113;SDS011;3087;48.392;10.836;2024-03-22T08:47:16;11.52;;;8.60;;
6113;SDS011;3087;48.392;10.836;2024-03-22T08:49:41;13.27;;;9.45;;
6113;SDS011;3087;48.392;10.836;2024-03-22T08:52:09;14.93;;;10.40;;
6113;SDS011;3087;48.392;10.836;2024-03-22T08:54:35;10.63;;;8.98;;
6113;SDS011;3087;48.392;10.836;2024-03-22T08:57:00;13.93;;;9.73;;
6113;SDS011;3087;48.392;10.836;2024-03-22T08:59:26;11.30;;;8.45;;
6113;SDS011;3087;48.392;10.836;2024-03-22T09:01:52;11.18;;;9.68;;
6113;SDS011;3087;48.392;10.836;2024-03-22T09:04:17;12.10;;;9.10;;
6113;SDS011;3087;48.392;10.836;2024-03-22T09:06:44;10.73;;;9.30;;
6113;SDS011;3087;48.392;10.836;2024-03-22T09:09:10;13.15;;;8.30;;
6113;SDS011;3087;48.392;10.836;2024-03-22T09:11:36;9.68;;;8.55;;
6113;SDS011;3087;48.392;10.836;2024-03-22T09:14:02;13.52;;;9.10;;
6113;SDS011;3087;48.392;10.836;2024-03-22T09:16:27;13.57;;;9.95;;
6113;SDS011;3087;48.392;10.836;2024-03-22T09:18:53;12.95;;;9.75;;
6113;SDS011;3087;48.392;10.836;2024-03-22T09:21:19;12.52;;;8.80;;
6113;SDS011;3087;48.392;10.836;2024-03-22T09:23:44;12.95;;;9.65;;
6113;SDS011;3087;48.392;10.836;2024-03-22T09:26:10;12.70;;;9.43;;
6113;SDS011;3087;48.392;10.836;2024-03-22T09:28:36;9.95;;;8.43;;
6113;SDS011;3087;48.392;10.836;2024-03-22T09:31:05;9.18;;;8.20;;
6113;SDS011;3087;48.392;10.836;2024-03-22T09:33:35;12.45;;;9.15;;
6113;SDS011;3087;48.392;10.836;2024-03-22T09:36:01;10.90;;;8.63;;
6113;SDS011;3087;48.392;10.836;2024-03-22T09:38:27;12.15;;;8.18;;
6113;SDS011;3087;48.392;10.836;2024-03-22T09:40:53;10.32;;;8.80;;
6113;SDS011;3087;48.392;10.836;2024-03-22T09:43:20;11.57;;;8.27;;
6113;SDS011;3087;48.392;10.836;2024-03-22T09:45:49;15.93;;;10.30;;
6113;SDS011;3087;48.392;10.836;2024-03-22T09:48:16;11.55;;;9.40;;
6113;SDS011;3087;48.392;10.836;2024-03-22T09:50:43;14.40;;;9.98;;
6113;SDS011;3087;48.392;10.836;2024-03-22T09:53:11;13.75;;;8.98;;
6113;SDS011;3087;48.392;10.836;2024-03-22T09:55:38;10.05;;;9.00;;
6113;SDS011;3087;48.392;10.836;2024-03-22T09:58:08;13.63;;;10.73;;
6113;SDS011;3087;48.392;10.836;2024-03-22T10:00:34;11.82;;;8.98;;
6113;SDS011;3087;48.392;10.836;2024-03-22T10:03:00;11.35;;;8.48;;
6113;SDS011;3087;48.392;10.836;2024-03-22T10:05:26;11.52;;;9.13;;
6113;SDS011;3087;48.392;10.836;2024-03-22T10:07:51;12.60;;;9.95;;
6113;SDS011;3087;48.392;10.836;2024-03-22T10:10:18;12.73;;;9.18;;
6113;SDS011;3087;48.392;10.836;2024-03-22T10:12:44;11.10;;;8.55;;
6113;SDS011;3087;48.392;10.836;2024-03-22T10:15:09;14.88;;;9.43;;
6113;SDS011;3087;48.392;10.836;2024-03-22T10:17:36;12.98;;;9.52;;
6113;SDS011;3087;48.392;10.836;2024-03-22T10:20:02;10.50;;;8.52;;
6113;SDS011;3087;48.392;10.836;2024-03-22T10:22:28;13.07;;;8.43;;
6113;SDS011;3087;48.392;10.836;2024-03-22T10:24:54;12.20;;;9.20;;
6113;SDS011;3087;48.392;10.836;2024-03-22T10:27:20;14.70;;;8.10;;
6113;SDS011;3087;48.392;10.836;2024-03-22T10:29:46;12.43;;;8.80;;
6113;SDS011;3087;48.392;10.836;2024-03-22T10:32:12;10.20;;;8.43;;
6113;SDS011;3087;48.392;10.836;2024-03-22T10:34:38;9.80;;;7.82;;
6113;SDS011;3087;48.392;10.836;2024-03-22T10:37:06;11.55;;;7.97;;
6113;SDS011;3087;48.392;10.836;2024-03-22T10:39:35;9.30;;;6.38;;
6113;SDS011;3087;48.392;10.836;2024-03-22T10:42:02;10.10;;;6.45;;
6113;SDS011;3087;48.392;10.836;2024-03-22T10:44:27;8.90;;;6.95;;
6113;SDS011;3087;48.392;10.836;2024-03-22T10:46:53;11.88;;;8.15;;
6113;SDS011;3087;48.392;10.836;2024-03-22T10:49:24;9.50;;;7.32;;
6113;SDS011;3087;48.392;10.836;2024-03-22T10:51:54;13.18;;;8.93;;
6113;SDS011;3087;48.392;10.836;2024-03-22T10:54:28;10.18;;;6.72;;
6113;SDS011;3087;48.392;10.836;2024-03-22T10:56:57;10.02;;;7.43;;
6113;SDS011;3087;48.392;10.836;2024-03-22T10:59:23;8.90;;;7.05;;
6113;SDS011;3087;48.392;10.836;2024-03-22T11:01:49;10.15;;;7.25;;
6113;SDS011;3087;48.392;10.836;2024-03-22T11:04:19;9.00;;;6.25;;
6113;SDS011;3087;48.392;10.836;2024-03-22T11:06:48;11.20;;;7.20;;
6113;SDS011;3087;48.392;10.836;2024-03-22T11:09:18;11.70;;;7.18;;
6113;SDS011;3087;48.392;10.836;2024-03-22T11:11:47;9.45;;;6.88;;
6113;SDS011;3087;48.392;10.836;2024-03-22T11:14:13;8.10;;;6.50;;
6113;SDS011;3087;48.392;10.836;2024-03-22T11:16:42;10.23;;;6.43;;
6113;SDS011;3087;48.392;10.836;2024-03-22T11:19:11;7.93;;;6.15;;
6113;SDS011;3087;48.392;10.836;2024-03-22T11:21:37;7.18;;;6.35;;
6113;SDS011;3087;48.392;10.836;2024-03-22T11:24:03;7.50;;;6.00;;
6113;SDS011;3087;48.392;10.836;2024-03-22T11:26:29;8.80;;;6.00;;
6113;SDS011;3087;48.392;10.836;2024-03-22T11:28:55;7.80;;;6.10;;
6113;SDS011;3087;48.392;10.836;2024-03-22T11:31:21;8.10;;;6.40;;
6113;SDS011;3087;48.392;10.836;2024-03-22T11:33:52;8.48;;;5.95;;
6113;SDS011;3087;48.392;10.836;2024-03-22T11:36:18;9.13;;;6.00;;
6113;SDS011;3087;48.392;10.836;2024-03-22T11:38:44;7.07;;;5.97;;
6113;SDS011;3087;48.392;10.836;2024-03-22T11:41:09;8.07;;;7.03;;
6113;SDS011;3087;48.392;10.836;2024-03-22T11:43:36;7.78;;;6.00;;
6113;SDS011;3087;48.392;10.836;2024-03-22T11:46:02;9.45;;;6.00;;
6113;SDS011;3087;48.392;10.836;2024-03-22T11:48:28;8.25;;;6.20;;
6113;SDS011;3087;48.392;10.836;2024-03-22T11:50:54;7.75;;;6.30;;
6113;SDS011;3087;48.392;10.836;2024-03-22T11:53:20;7.32;;;5.50;;
6113;SDS011;3087;48.392;10.836;2024-03-22T11:55:48;7.18;;;5.40;;
6113;SDS011;3087;48.392;10.836;2024-03-22T11:58:14;8.02;;;5.07;;
6113;SDS011;3087;48.392;10.836;2024-03-22T12:00:41;10.55;;;6.28;;
6113;SDS011;3087;48.392;10.836;2024-03-22T12:03:09;8.57;;;5.07;;
6113;SDS011;3087;48.392;10.836;2024-03-22T12:05:35;5.85;;;4.65;;
6113;SDS011;3087;48.392;10.836;2024-03-22T12:08:01;8.80;;;5.95;;
6113;SDS011;3087;48.392;10.836;2024-03-22T12:10:27;6.65;;;5.47;;
6113;SDS011;3087;48.392;10.836;2024-03-22T12:12:52;7.32;;;5.53;;
6113;SDS011;3087;48.392;10.836;2024-03-22T12:15:19;7.07;;;5.25;;
6113;SDS011;3087;48.392;10.836;2024-03-22T12:17:44;8.25;;;5.18;;
6113;SDS011;3087;48.392;10.836;2024-03-22T12:20:10;6.90;;;6.03;;
6113;SDS011;3087;48.392;10.836;2024-03-22T12:22:35;6.22;;;4.93;;
6113;SDS011;3087;48.392;10.836;2024-03-22T12:25:01;6.63;;;5.50;;
6113;SDS011;3087;48.392;10.836;2024-03-22T12:27:29;9.20;;;6.20;;
6113;SDS011;3087;48.392;10.836;2024-03-22T12:29:55;7.82;;;5.80;;
6113;SDS011;3087;48.392;10.836;2024-03-22T12:32:20;7.38;;;5.10;;
6113;SDS011;3087;48.392;10.836;2024-03-22T12:34:46;8.20;;;6.07;;
6113;SDS011;3087;48.392;10.836;2024-03-22T12:37:11;8.93;;;5.15;;
6113;SDS011;3087;48.392;10.836;2024-03-22T12:39:37;6.88;;;5.38;;
6113;SDS011;3087;48.392;10.836;2024-03-22T12:42:02;7.13;;;5.68;;
6113;SDS011;3087;48.392;10.836;2024-03-22T12:44:28;6.75;;;4.60;;
6113;SDS011;3087;48.392;10.836;2024-03-22T12:46:54;7.20;;;5.22;;
6113;SDS011;3087;48.392;10.836;2024-03-22T12:49:21;5.82;;;5.03;;
6113;SDS011;3087;48.392;10.836;2024-03-22T12:51:46;7.70;;;5.93;;
6113;SDS011;3087;48.392;10.836;2024-03-22T12:54:13;7.10;;;6.40;;
6113;SDS011;3087;48.392;10.836;2024-03-22T12:56:39;6.30;;;4.80;;
6113;SDS011;3087;48.392;10.836;2024-03-22T12:59:05;8.43;;;5.50;;
6113;SDS011;3087;48.392;10.836;2024-03-22T13:01:32;6.55;;;5.30;;
6113;SDS011;3087;48.392;10.836;2024-03-22T13:03:58;6.63;;;4.35;;
6113;SDS011;3087;48.392;10.836;2024-03-22T13:06:23;6.80;;;5.03;;
6113;SDS011;3087;48.392;10.836;2024-03-22T13:08:49;5.63;;;5.05;;
6113;SDS011;3087;48.392;10.836;2024-03-22T13:11:15;8.35;;;4.95;;
6113;SDS011;3087;48.392;10.836;2024-03-22T13:13:42;5.18;;;4.20;;
6113;SDS011;3087;48.392;10.836;2024-03-22T13:16:08;6.20;;;4.43;;
6113;SDS011;3087;48.392;10.836;2024-03-22T13:18:36;8.77;;;4.70;;
6113;SDS011;3087;48.392;10.836;2024-03-22T13:21:02;7.93;;;6.10;;
6113;SDS011;3087;48.392;10.836;2024-03-22T13:23:30;5.78;;;4.80;;
6113;SDS011;3087;48.392;10.836;2024-03-22T13:25:55;6.47;;;4.47;;
6113;SDS011;3087;48.392;10.836;2024-03-22T13:28:23;6.63;;;4.82;;
6113;SDS011;3087;48.392;10.836;2024-03-22T13:30:49;11.50;;;4.97;;
6113;SDS011;3087;48.392;10.836;2024-03-22T13:33:24;7.53;;;4.90;;
6113;SDS011;3087;48.392;10.836;2024-03-22T13:35:49;5.85;;;4.60;;
6113;SDS011;3087;48.392;10.836;2024-03-22T13:38:15;7.22;;;4.05;;
6113;SDS011;3087;48.392;10.836;2024-03-22T13:40:41;8.52;;;4.82;;
6113;SDS011;3087;48.392;10.836;2024-03-22T13:43:09;6.85;;;5.22;;
6113;SDS011;3087;48.392;10.836;2024-03-22T13:45:44;5.75;;;4.05;;
6113;SDS011;3087;48.392;10.836;2024-03-22T13:48:10;5.40;;;4.30;;
6113;SDS011;3087;48.392;10.836;2024-03-22T13:50:39;5.30;;;4.05;;
6113;SDS011;3087;48.392;10.836;2024-03-22T13:53:06;5.55;;;4.07;;
6113;SDS011;3087;48.392;10.836;2024-03-22T13:55:33;4.63;;;3.03;;
6113;SDS011;3087;48.392;10.836;2024-03-22T13:57:58;5.07;;;3.15;;
6113;SDS011;3087;48.392;10.836;2024-03-22T14:00:24;5.40;;;3.20;;
6113;SDS011;3087;48.392;10.836;2024-03-22T14:02:51;4.85;;;4.20;;
6113;SDS011;3087;48.392;10.836;2024-03-22T14:05:19;4.20;;;3.22;;
6113;SDS011;3087;48.392;10.836;2024-03-22T14:07:45;4.72;;;3.10;;
6113;SDS011;3087;48.392;10.836;2024-03-22T14:10:10;3.95;;;3.20;;
6113;SDS011;3087;48.392;10.836;2024-03-22T14:12:40;7.90;;;4.07;;
6113;SDS011;3087;48.392;10.836;2024-03-22T14:15:07;5.63;;;3.55;;
6113;SDS011;3087;48.392;10.836;2024-03-22T14:17:32;4.32;;;2.92;;
6113;SDS011;3087;48.392;10.836;2024-03-22T14:19:58;4.60;;;3.40;;
6113;SDS011;3087;48.392;10.836;2024-03-22T14:22:24;4.05;;;3.20;;
6113;SDS011;3087;48.392;10.836;2024-03-22T14:24:49;7.10;;;3.33;;
6113;SDS011;3087;48.392;10.836;2024-03-22T14:27:15;5.32;;;3.65;;
6113;SDS011;3087;48.392;10.836;2024-03-22T14:29:41;7.93;;;3.58;;
6113;SDS011;3087;48.392;10.836;2024-03-22T14:32:06;6.55;;;4.25;;
6113;SDS011;3087;48.392;10.836;2024-03-22T14:34:32;5.30;;;3.63;;
6113;SDS011;3087;48.392;10.836;2024-03-22T14:36:58;4.93;;;3.45;;